createdAt,value
2022-08-19T00:05:47.230Z,5
2022-08-19T00:15:53.416Z,4
2022-08-19T00:26:05.993Z,7
2022-08-19T00:35:59.188Z,10
2022-08-19T00:46:06.836Z,10
2022-08-19T00:56:07.528Z,6
2022-08-19T01:06:13.787Z,9
2022-08-19T01:16:20.324Z,9
2022-08-19T01:26:29.222Z,6
2022-08-19T01:36:31.506Z,5
2022-08-19T01:46:38.172Z,4
2022-08-19T01:56:44.006Z,4
2022-08-19T02:06:48.561Z,4
2022-08-19T02:16:53.939Z,4
2022-08-19T02:27:00.358Z,6
2022-08-19T02:37:12.977Z,6
2022-08-19T02:47:12.303Z,12
2022-08-19T02:57:17.454Z,11
2022-08-19T03:07:23.569Z,11
2022-08-19T03:17:30.953Z,12
2022-08-19T03:27:37.138Z,17
2022-08-19T03:37:43.525Z,13
2022-08-19T03:47:57.023Z,10
2022-08-19T03:58:13.893Z,10
2022-08-19T04:08:13.353Z,9
2022-08-19T04:18:14.406Z,8
2022-08-19T04:28:22.327Z,10
2022-08-19T04:38:28.411Z,8
2022-08-19T04:49:20.009Z,10
2022-08-19T04:59:13.908Z,9
2022-08-19T05:09:20.220Z,9
2022-08-19T05:19:27.784Z,9
2022-08-19T05:29:42.034Z,8
2022-08-19T05:39:41.216Z,10
2022-08-19T05:49:45.881Z,9
2022-08-19T05:59:52.662Z,8
2022-08-19T06:09:59.292Z,8
2022-08-19T06:20:00.636Z,9
2022-08-19T06:30:11.321Z,8
2022-08-19T06:40:12.488Z,6
2022-08-19T06:50:20.485Z,9
2022-08-19T07:00:23.099Z,7
2022-08-19T07:10:44.397Z,7
2022-08-19T07:20:59.246Z,11
2022-08-19T07:30:56.856Z,9
2022-08-19T07:40:57.582Z,9
2022-08-19T07:51:02.569Z,9
2022-08-19T08:01:11.290Z,10
2022-08-19T08:11:23.859Z,10
2022-08-19T08:21:17.621Z,13
2022-08-19T08:31:26.457Z,7
2022-08-19T08:41:29.998Z,9
2022-08-19T08:51:36.510Z,9
2022-08-19T09:01:43.074Z,7
2022-08-19T09:12:26.839Z,10
2022-08-19T09:22:25.464Z,10
2022-08-19T09:32:31.275Z,10
2022-08-19T09:43:00.366Z,6
2022-08-19T09:53:03.522Z,8
2022-08-19T10:08:20.629Z,8
2022-08-19T10:18:31.407Z,5
2022-08-19T10:59:00.464Z,6
2022-08-19T11:09:11.241Z,5
2022-08-19T11:19:12.187Z,5
2022-08-19T11:59:40.723Z,8
2022-08-19T13:41:00.875Z,7
2022-08-19T14:41:38.273Z,7
2022-08-19T14:51:43.854Z,7
2022-08-19T15:01:48.463Z,4
2022-08-19T15:11:54.933Z,4
2022-08-19T15:22:08.937Z,5
2022-08-19T15:32:15.690Z,5
2022-08-19T15:42:12.905Z,5
2022-08-19T15:52:22.216Z,6
2022-08-19T16:02:32.516Z,5
2022-08-19T16:22:40.803Z,4
2022-08-19T16:32:50.246Z,6
2022-08-19T16:42:54.885Z,5
2022-08-19T16:53:01.759Z,3
2022-08-19T17:03:14.850Z,3
2022-08-19T17:13:19.054Z,3
2022-08-19T17:23:20.683Z,4
2022-08-19T17:33:36.932Z,5
2022-08-19T17:43:43.724Z,4
2022-08-19T18:03:59.584Z,4
2022-08-19T18:14:05.024Z,4
2022-08-19T18:24:45.927Z,5
2022-08-19T18:34:39.926Z,7
2022-08-19T18:44:45.296Z,8
2022-08-19T18:54:52.145Z,12
2022-08-19T19:04:54.713Z,11
2022-08-19T19:15:31.312Z,10
2022-08-19T19:25:26.461Z,9
2022-08-19T19:35:45.816Z,10
2022-08-19T19:45:50.525Z,10
2022-08-19T19:55:55.684Z,9
2022-08-19T20:06:06.014Z,10
2022-08-19T20:26:19.313Z,10
2022-08-19T20:36:37.380Z,9
2022-08-19T20:46:43.262Z,8
2022-08-19T20:56:55.998Z,8
2022-08-19T21:07:05.580Z,11
2022-08-19T21:17:02.679Z,10
2022-08-19T21:27:08.504Z,10
2022-08-19T21:37:19.953Z,10
2022-08-19T21:47:26.451Z,9
2022-08-19T21:57:25.938Z,12
2022-08-19T22:07:33.486Z,13
2022-08-19T22:17:36.046Z,11
2022-08-19T22:27:44.746Z,10
2022-08-19T22:37:48.965Z,11
2022-08-19T22:47:57.753Z,9
2022-08-19T22:58:00.590Z,10
2022-08-19T23:08:10.164Z,11
2022-08-19T23:18:11.582Z,10
2022-08-19T23:28:17.948Z,9
2022-08-19T23:38:22.617Z,11
2022-08-19T23:48:30.411Z,10
2022-08-19T23:58:35.905Z,8
